TimeCST,TemperatureF,Dew PointF,Humidity,Sea Level PressureIn,VisibilityMPH,Wind Direction,Wind SpeedMPH,Gust SpeedMPH,PrecipitationIn,Events,Conditions,WindDirDegrees,DateUTC
12:15 AM,16.7,8.6,70,30.18,10.0,North,6.9,-,N/A,,Overcast,350,2013-01-01 06:15:00
12:35 AM,16.5,7.9,69,30.18,10.0,North,8.1,-,N/A,,Overcast,350,2013-01-01 06:35:00
12:55 AM,15.8,7.7,70,30.18,10.0,NNW,6.9,-,N/A,,Mostly Cloudy,340,2013-01-01 06:55:00
1:15 AM,15.3,7.3,71,30.18,10.0,North,4.6,-,N/A,,Mostly Cloudy,350,2013-01-01 07:15:00
1:35 AM,14.0,6.6,72,30.18,10.0,NNW,4.6,-,N/A,,Scattered Clouds,340,2013-01-01 07:35:00
1:55 AM,13.5,6.1,72,30.19,10.0,North,5.8,-,N/A,,Scattered Clouds,350,2013-01-01 07:55:00
2:15 AM,12.9,5.9,74,30.19,10.0,North,5.8,-,N/A,,Scattered Clouds,350,2013-01-01 08:15:00
2:35 AM,12.7,5.4,72,30.20,10.0,North,5.8,-,N/A,,Clear,350,2013-01-01 08:35:00
2:55 AM,12.0,4.6,72,30.20,10.0,North,4.6,-,N/A,,Clear,360,2013-01-01 08:55:00
3:15 AM,11.3,4.1,73,30.21,10.0,North,5.8,-,N/A,,Clear,350,2013-01-01 09:15:00
3:35 AM,10.9,3.7,73,30.21,10.0,NNW,4.6,-,N/A,,Clear,340,2013-01-01 09:35:00
3:55 AM,10.6,3.7,74,30.23,10.0,NW,3.5,-,N/A,,Clear,310,2013-01-01 09:55:00
4:15 AM,10.0,3.2,74,30.21,10.0,NNW,5.8,-,N/A,,Clear,340,2013-01-01 10:15:00
4:35 AM,9.5,2.8,74,30.21,10.0,NNW,4.6,-,N/A,,Clear,330,2013-01-01 10:35:00
4:55 AM,9.0,2.5,75,30.22,10.0,NW,3.5,-,N/A,,Clear,320,2013-01-01 10:55:00
5:15 AM,8.6,2.3,76,30.23,10.0,NNW,4.6,-,N/A,,Clear,330,2013-01-01 11:15:00
5:35 AM,8.1,1.8,75,30.23,10.0,NNW,6.9,-,N/A,,Clear,340,2013-01-01 11:35:00
6:15 AM,8.2,2.3,77,30.25,10.0,NNW,3.5,-,N/A,,Clear,330,2013-01-01 12:15:00
6:35 AM,8.1,2.3,77,30.24,10.0,Calm,Calm,-,N/A,,Clear,0,2013-01-01 12:35:00
6:55 AM,6.3,1.2,80,30.24,10.0,North,4.6,-,N/A,,Clear,350,2013-01-01 12:55:00
7:15 AM,5.4,0.5,80,30.25,10.0,North,5.8,-,N/A,,Clear,350,2013-01-01 13:15:00
7:35 AM,5.5,0.5,80,30.24,10.0,North,4.6,-,N/A,,Clear,360,2013-01-01 13:35:00
7:55 AM,5.0,0.1,80,30.24,10.0,North,4.6,-,N/A,,Clear,350,2013-01-01 13:55:00
8:15 AM,6.1,0.5,78,30.24,10.0,North,4.6,-,N/A,,Clear,350,2013-01-01 14:15:00
8:35 AM,7.0,0.5,75,30.25,10.0,NNW,5.8,-,N/A,,Clear,340,2013-01-01 14:35:00
8:55 AM,7.9,0.9,73,30.24,10.0,NNW,6.9,-,N/A,,Clear,340,2013-01-01 14:55:00
9:15 AM,8.6,1.4,73,30.24,10.0,NNW,8.1,-,N/A,,Clear,340,2013-01-01 15:15:00
9:35 AM,10.0,1.9,70,30.25,10.0,NNW,6.9,-,N/A,,Clear,330,2013-01-01 15:35:00
9:55 AM,11.1,2.1,67,30.26,10.0,North,5.8,-,N/A,,Clear,350,2013-01-01 15:55:00
10:15 AM,12.0,2.5,66,30.27,10.0,North,5.8,-,N/A,,Clear,10,2013-01-01 16:15:00
10:35 AM,13.3,2.8,63,30.28,10.0,North,4.6,-,N/A,,Clear,10,2013-01-01 16:35:00
10:55 AM,14.2,3.0,61,30.27,10.0,Calm,Calm,-,N/A,,Clear,0,2013-01-01 16:55:00
11:15 AM,14.4,4.1,64,30.26,10.0,Calm,Calm,-,N/A,,Clear,0,2013-01-01 17:15:00
11:35 AM,14.7,3.9,62,30.26,10.0,Calm,Calm,-,N/A,,Clear,0,2013-01-01 17:35:00
11:55 AM,15.3,4.3,62,30.25,10.0,SW,3.5,-,N/A,,Clear,230,2013-01-01 17:55:00
12:15 PM,15.8,4.5,61,30.25,10.0,West,3.5,-,N/A,,Clear,280,2013-01-01 18:15:00
12:35 PM,16.3,4.8,61,30.25,10.0,WSW,5.8,-,N/A,,Clear,240,2013-01-01 18:35:00
12:55 PM,16.0,4.3,60,30.24,10.0,WSW,6.9,-,N/A,,Clear,250,2013-01-01 18:55:00
1:15 PM,16.0,4.8,61,30.24,10.0,West,5.8,-,N/A,,Clear,270,2013-01-01 19:15:00
1:35 PM,16.2,4.1,59,30.22,10.0,West,4.6,-,N/A,,Clear,270,2013-01-01 19:35:00
1:55 PM,16.7,5.0,60,30.21,10.0,West,4.6,-,N/A,,Clear,260,2013-01-01 19:55:00
2:15 PM,16.7,4.3,58,30.22,10.0,West,5.8,-,N/A,,Clear,260,2013-01-01 20:15:00
2:35 PM,16.9,4.1,57,30.21,10.0,West,6.9,-,N/A,,Clear,260,2013-01-01 20:35:00
2:55 PM,17.1,4.1,57,30.21,10.0,West,5.8,-,N/A,,Clear,260,2013-01-01 20:55:00
3:15 PM,17.2,4.1,56,30.21,10.0,West,5.8,-,N/A,,Clear,270,2013-01-01 21:15:00
3:35 PM,17.1,3.0,54,30.21,10.0,West,8.1,-,N/A,,Clear,280,2013-01-01 21:35:00
3:55 PM,16.7,4.1,58,30.21,10.0,West,8.1,-,N/A,,Clear,270,2013-01-01 21:55:00
4:15 PM,16.0,2.7,56,30.21,10.0,West,5.8,-,N/A,,Clear,280,2013-01-01 22:15:00
4:35 PM,15.6,3.2,58,30.21,10.0,WNW,6.9,-,N/A,,Clear,300,2013-01-01 22:35:00
4:55 PM,14.9,3.9,62,30.21,10.0,WNW,6.9,-,N/A,,Clear,300,2013-01-01 22:55:00
5:15 PM,14.7,4.3,63,30.21,10.0,WNW,6.9,-,N/A,,Clear,290,2013-01-01 23:15:00
5:35 PM,14.0,3.2,62,30.22,10.0,WNW,6.9,-,N/A,,Clear,290,2013-01-01 23:35:00
5:55 PM,13.8,3.2,63,30.22,10.0,West,4.6,-,N/A,,Clear,280,2013-01-01 23:55:00
6:15 PM,13.5,3.2,64,30.21,10.0,WNW,6.9,-,N/A,,Clear,290,2013-01-02 00:15:00
6:35 PM,13.1,3.2,65,30.21,10.0,WNW,6.9,-,N/A,,Clear,290,2013-01-02 00:35:00
6:55 PM,13.1,3.0,64,30.22,10.0,West,4.6,-,N/A,,Clear,280,2013-01-02 00:55:00
7:15 PM,12.9,3.6,66,30.22,10.0,Calm,Calm,-,N/A,,Clear,0,2013-01-02 01:15:00
7:35 PM,12.2,3.2,67,30.22,10.0,Calm,Calm,-,N/A,,Clear,0,2013-01-02 01:35:00
7:55 PM,12.0,3.2,68,30.22,10.0,West,3.5,-,N/A,,Clear,260,2013-01-02 01:55:00
8:15 PM,11.8,3.0,68,30.21,10.0,Calm,Calm,-,N/A,,Clear,0,2013-01-02 02:15:00
8:35 PM,11.3,3.2,70,30.21,10.0,Calm,Calm,-,N/A,,Clear,0,2013-01-02 02:35:00
8:55 PM,11.3,3.2,70,30.21,10.0,Calm,Calm,-,N/A,,Clear,0,2013-01-02 02:55:00
9:15 PM,7.2,1.9,79,30.21,10.0,Calm,Calm,-,N/A,,Clear,0,2013-01-02 03:15:00
9:35 PM,10.9,3.2,71,30.21,10.0,Calm,Calm,-,N/A,,Clear,0,2013-01-02 03:35:00
9:55 PM,9.7,2.3,72,30.21,10.0,Calm,Calm,-,N/A,,Clear,0,2013-01-02 03:55:00
10:15 PM,5.2,0.1,80,30.20,10.0,SSE,3.5,-,N/A,,Clear,150,2013-01-02 04:15:00
10:35 PM,3.7,-0.0,84,30.21,10.0,Calm,Calm,-,N/A,,Clear,0,2013-01-02 04:35:00
10:55 PM,3.7,-0.6,82,30.21,10.0,Calm,Calm,-,N/A,,Clear,0,2013-01-02 04:55:00
11:15 PM,4.3,0.3,84,30.21,10.0,Calm,Calm,-,N/A,,Clear,0,2013-01-02 05:15:00
11:35 PM,3.9,-0.6,82,30.20,10.0,South,4.6,-,N/A,,Clear,180,2013-01-02 05:35:00
11:55 PM,3.7,-0.4,83,30.19,10.0,South,4.6,-,N/A,,Scattered Clouds,170,2013-01-02 05:55:00